createdAt,value
2024-03-25T00:00:06.951Z,8.25
2024-03-25T00:01:05.966Z,8.25
2024-03-25T00:02:06.740Z,8.25
2024-03-25T00:03:06.173Z,8.25
2024-03-25T00:04:05.580Z,8.25
2024-03-25T00:05:06.032Z,8.25
2024-03-25T00:06:05.592Z,8.25
2024-03-25T00:07:06.407Z,8.25
2024-03-25T00:08:06.097Z,8.25
2024-03-25T00:09:05.915Z,8.25
2024-03-25T00:10:06.676Z,8.25
2024-03-25T00:11:06.268Z,8.25
2024-03-25T00:12:05.644Z,8.25
2024-03-25T00:13:06.158Z,8.25
2024-03-25T00:14:05.730Z,8.25
2024-03-25T00:15:06.449Z,8.25
2024-03-25T00:16:06.116Z,8.25
2024-03-25T00:17:05.825Z,8.25
2024-03-25T00:18:06.229Z,8.25
2024-03-25T00:19:05.693Z,8.267
2024-03-25T00:20:06.167Z,8.25
2024-03-25T00:21:05.633Z,8.258
2024-03-25T00:22:05.938Z,8.25
2024-03-25T00:23:06.170Z,8.267
2024-03-25T00:24:05.551Z,8.25
2024-03-25T00:25:06.099Z,8.25
2024-03-25T00:26:05.546Z,8.25
2024-03-25T00:27:05.968Z,8.25
2024-03-25T00:28:06.248Z,8.25
2024-03-25T00:29:05.656Z,8.25
2024-03-25T00:30:06.212Z,8.25
2024-03-25T00:31:05.581Z,8.260
2024-03-25T00:32:06.110Z,8.281
2024-03-25T00:33:05.547Z,8.260
2024-03-25T00:34:05.858Z,8.260
2024-03-25T00:35:06.252Z,8.25
2024-03-25T00:36:05.587Z,8.25
2024-03-25T00:37:05.923Z,8.260
2024-03-25T00:38:06.244Z,8.25
2024-03-25T00:39:05.679Z,8.25
2024-03-25T00:40:06.038Z,8.25
2024-03-25T00:41:05.477Z,8.25
2024-03-25T00:42:05.888Z,8.260
2024-03-25T00:43:06.169Z,8.291
2024-03-25T00:44:05.495Z,8.260
2024-03-25T00:45:06.213Z,8.25
2024-03-25T00:46:05.613Z,8.270
2024-03-25T00:47:06.134Z,8.260
2024-03-25T00:48:05.530Z,8.25
2024-03-25T00:49:05.924Z,8.25
2024-03-25T00:50:06.298Z,8.25
2024-03-25T00:51:05.644Z,8.25
2024-03-25T00:52:06.069Z,8.25
2024-03-25T00:53:05.568Z,8.25
2024-03-25T00:54:05.793Z,8.25
2024-03-25T00:55:06.079Z,8.25
2024-03-25T00:56:05.428Z,8.25
2024-03-25T00:57:05.960Z,8.25
2024-03-25T00:58:06.173Z,8.25
2024-03-25T00:59:05.433Z,8.25
2024-03-25T01:00:06.803Z,8.25
2024-03-25T01:01:05.956Z,8.208
2024-03-25T01:02:06.749Z,8.239
2024-03-25T01:03:06.127Z,8.187
2024-03-25T01:04:05.493Z,8.187
2024-03-25T01:05:05.915Z,8.229
2024-03-25T01:06:06.325Z,8.229
2024-03-25T01:07:05.741Z,8.229
2024-03-25T01:08:06.070Z,8.25
2024-03-25T01:09:05.348Z,8.187
2024-03-25T01:10:05.957Z,8.187
2024-03-25T01:11:06.124Z,8.187
2024-03-25T01:12:05.484Z,8.187
2024-03-25T01:13:05.792Z,8.187
2024-03-25T01:14:06.086Z,8.187
2024-03-25T01:15:05.867Z,8.187
2024-03-25T01:16:06.150Z,8.187
2024-03-25T01:17:05.732Z,8.187
2024-03-25T01:18:06.210Z,8.187
2024-03-25T01:19:05.688Z,8.187
2024-03-25T01:20:06.127Z,8.176
2024-03-25T01:21:05.470Z,8.135
2024-03-25T01:22:05.840Z,8.166
2024-03-25T01:23:06.190Z,8.125
2024-03-25T01:24:05.606Z,8.135
2024-03-25T01:25:06.083Z,8.125
2024-03-25T01:26:05.342Z,8.125
2024-03-25T01:27:05.747Z,8.125
2024-03-25T01:28:06.117Z,8.125
2024-03-25T01:29:05.242Z,8.125
2024-03-25T01:30:06.013Z,8.125
2024-03-25T01:31:05.295Z,8.104
2024-03-25T01:32:05.795Z,8.072
2024-03-25T01:33:06.151Z,8.125
2024-03-25T01:34:05.349Z,8.072
2024-03-25T01:35:05.811Z,8.062
2024-03-25T01:36:06.149Z,8.062
2024-03-25T01:37:05.418Z,8.062
2024-03-25T01:38:06.046Z,8.062
2024-03-25T01:39:05.498Z,8.062
2024-03-25T01:40:05.838Z,8.062
2024-03-25T01:41:06.146Z,8.062
2024-03-25T01:42:05.409Z,8.012
2024-03-25T01:43:05.719Z,8
2024-03-25T01:44:06.054Z,8
2024-03-25T01:45:05.633Z,8
2024-03-25T01:46:05.983Z,8
2024-03-25T01:47:05.392Z,8
2024-03-25T01:48:05.851Z,8
2024-03-25T01:49:06.222Z,8
2024-03-25T01:50:05.766Z,7.936
2024-03-25T01:51:06.091Z,7.936
2024-03-25T01:52:05.464Z,7.936
2024-03-25T01:53:05.970Z,7.936
2024-03-25T01:54:05.378Z,7.936
2024-03-25T01:55:05.811Z,7.919
2024-03-25T01:56:06.054Z,7.936
2024-03-25T01:57:05.515Z,7.936
2024-03-25T01:58:05.735Z,7.875
2024-03-25T01:59:05.984Z,7.875
2024-03-25T02:00:06.396Z,7.833
2024-03-25T02:01:06.257Z,7.829
2024-03-25T02:02:05.776Z,7.875
2024-03-25T02:03:06.124Z,7.821
2024-03-25T02:04:05.376Z,7.811
2024-03-25T02:05:05.830Z,7.848
2024-03-25T02:06:06.184Z,7.811
2024-03-25T02:07:05.541Z,7.811
2024-03-25T02:08:05.814Z,7.811
2024-03-25T02:09:06.363Z,7.811
2024-03-25T02:10:05.855Z,7.781
2024-03-25T02:11:06.362Z,7.75
2024-03-25T02:12:05.685Z,7.75
2024-03-25T02:13:05.957Z,7.739
2024-03-25T02:14:06.253Z,7.686
2024-03-25T02:15:05.908Z,7.686
2024-03-25T02:16:06.382Z,7.686
2024-03-25T02:17:05.883Z,7.686
2024-03-25T02:18:06.279Z,7.666
2024-03-25T02:19:05.612Z,7.686
2024-03-25T02:20:06.206Z,7.666
2024-03-25T02:21:05.656Z,7.666
2024-03-25T02:22:06.025Z,7.625
2024-03-25T02:23:05.477Z,7.604
2024-03-25T02:24:05.785Z,7.625
2024-03-25T02:25:06.261Z,7.614
2024-03-25T02:26:05.750Z,7.561
2024-03-25T02:27:06.165Z,7.561
2024-03-25T02:28:05.464Z,7.572
2024-03-25T02:29:05.678Z,7.561
2024-03-25T02:30:06.527Z,7.561
2024-03-25T02:31:05.901Z,7.551
2024-03-25T02:32:06.459Z,7.5
2024-03-25T02:33:05.772Z,7.531
2024-03-25T02:34:06.126Z,7.5
2024-03-25T02:35:05.499Z,7.5
2024-03-25T02:36:05.864Z,7.5
2024-03-25T02:37:06.187Z,7.479
2024-03-25T02:38:05.447Z,7.468
2024-03-25T02:39:05.945Z,7.458
2024-03-25T02:40:06.252Z,7.436
2024-03-25T02:41:05.704Z,7.436
2024-03-25T02:42:06.015Z,7.436
2024-03-25T02:43:05.196Z,7.436
2024-03-25T02:44:05.531Z,7.436
2024-03-25T02:45:06.008Z,7.436
2024-03-25T02:46:05.409Z,7.416
2024-03-25T02:47:05.878Z,7.395
2024-03-25T02:48:06.256Z,7.375
2024-03-25T02:49:05.593Z,7.375
2024-03-25T02:50:06.045Z,7.375
2024-03-25T02:51:05.235Z,7.375
2024-03-25T02:52:05.568Z,7.375
2024-03-25T02:53:05.875Z,7.375
2024-03-25T02:54:06.052Z,7.375
2024-03-25T02:55:05.393Z,7.375
2024-03-25T02:56:05.639Z,7.375
2024-03-25T02:57:06.051Z,7.364
2024-03-25T02:58:05.407Z,7.322
2024-03-25T02:59:05.871Z,7.311
2024-03-25T03:00:07.249Z,7.311
2024-03-25T03:01:06.145Z,7.291
2024-03-25T03:02:05.748Z,7.25
2024-03-25T03:03:06.177Z,7.25
2024-03-25T03:04:05.507Z,7.274
2024-03-25T03:05:05.790Z,7.311
2024-03-25T03:06:06.206Z,7.311
2024-03-25T03:07:05.519Z,7.267
2024-03-25T03:08:05.863Z,7.311
2024-03-25T03:09:06.176Z,7.25
2024-03-25T03:10:05.483Z,7.25
2024-03-25T03:11:05.695Z,7.25
2024-03-25T03:12:06.183Z,7.25
2024-03-25T03:13:05.516Z,7.25
2024-03-25T03:14:05.806Z,7.25
2024-03-25T03:15:06.542Z,7.25
2024-03-25T03:16:05.937Z,7.25
2024-03-25T03:17:06.354Z,7.25
2024-03-25T03:18:05.672Z,7.25
2024-03-25T03:19:05.931Z,7.196
2024-03-25T03:20:06.388Z,7.237
2024-03-25T03:21:05.770Z,7.25
2024-03-25T03:22:06.072Z,7.25
2024-03-25T03:23:05.355Z,7.204
2024-03-25T03:24:05.729Z,7.186
2024-03-25T03:25:06.012Z,7.208
2024-03-25T03:26:05.381Z,7.186
2024-03-25T03:27:05.697Z,7.160
2024-03-25T03:28:06.113Z,7.149
2024-03-25T03:29:05.517Z,7.145
2024-03-25T03:30:06.090Z,7.125
2024-03-25T03:31:05.354Z,7.125
2024-03-25T03:32:05.875Z,7.125
2024-03-25T03:33:06.224Z,7.072
2024-03-25T03:34:05.546Z,7.061
2024-03-25T03:35:06.058Z,7.061
2024-03-25T03:36:05.410Z,7.051
2024-03-25T03:37:05.941Z,7
2024-03-25T03:38:06.303Z,7
2024-03-25T03:39:05.890Z,7
2024-03-25T03:40:06.252Z,7
2024-03-25T03:41:05.512Z,7
2024-03-25T03:42:05.971Z,6.979
2024-03-25T03:43:06.236Z,6.936
2024-03-25T03:44:05.554Z,6.936
2024-03-25T03:45:06.082Z,7
2024-03-25T03:46:05.434Z,7
2024-03-25T03:47:05.867Z,7
2024-03-25T03:48:06.162Z,7
2024-03-25T03:49:05.376Z,7
2024-03-25T03:50:05.707Z,7
2024-03-25T03:51:06.059Z,6.968
2024-03-25T03:52:05.405Z,6.936
2024-03-25T03:53:05.722Z,6.936
2024-03-25T03:54:06.194Z,6.936
2024-03-25T03:55:05.652Z,6.936
2024-03-25T03:56:06.063Z,6.936
2024-03-25T03:57:05.301Z,6.947
2024-03-25T03:58:05.586Z,6.979
2024-03-25T03:59:06.006Z,6.936
2024-03-25T04:00:06.300Z,6.936
2024-03-25T04:01:05.937Z,6.936
2024-03-25T04:02:06.564Z,6.926
2024-03-25T04:03:05.980Z,6.936
2024-03-25T04:04:05.329Z,6.906
2024-03-25T04:05:05.727Z,6.875
2024-03-25T04:06:06.022Z,6.906
2024-03-25T04:07:05.337Z,6.885
2024-03-25T04:08:05.813Z,6.864
2024-03-25T04:09:06.237Z,6.822
2024-03-25T04:10:05.649Z,6.822
2024-03-25T04:11:06.140Z,6.854
2024-03-25T04:12:05.643Z,6.833
2024-03-25T04:13:06.000Z,6.822
2024-03-25T04:14:05.305Z,6.811
2024-03-25T04:15:08.263Z,6.811
2024-03-25T04:16:05.580Z,6.811
2024-03-25T04:17:06.034Z,6.811
2024-03-25T04:18:05.320Z,6.781
2024-03-25T04:19:05.753Z,6.781
2024-03-25T04:20:06.247Z,6.811
2024-03-25T04:21:05.642Z,6.811
2024-03-25T04:22:05.913Z,6.791
2024-03-25T04:23:06.362Z,6.791
2024-03-25T04:24:05.808Z,6.75
2024-03-25T04:25:06.249Z,6.739
2024-03-25T04:26:05.647Z,6.75
2024-03-25T04:27:06.102Z,6.75
2024-03-25T04:28:05.626Z,6.697
2024-03-25T04:29:06.059Z,6.739
2024-03-25T04:30:05.740Z,6.729
2024-03-25T04:31:06.204Z,6.729
2024-03-25T04:32:05.699Z,6.737
2024-03-25T04:33:06.034Z,6.75
2024-03-25T04:34:05.475Z,6.699
2024-03-25T04:35:06.007Z,6.686
2024-03-25T04:36:05.365Z,6.649
2024-03-25T04:37:05.770Z,6.625
2024-03-25T04:38:06.278Z,6.625
2024-03-25T04:39:05.721Z,6.625
2024-03-25T04:40:06.080Z,6.625
2024-03-25T04:41:05.542Z,6.642
2024-03-25T04:42:05.916Z,6.662
2024-03-25T04:43:06.088Z,6.625
2024-03-25T04:44:05.547Z,6.625
2024-03-25T04:45:06.362Z,6.625
2024-03-25T04:46:05.729Z,6.625
2024-03-25T04:47:06.158Z,6.616
2024-03-25T04:48:05.486Z,6.625
2024-03-25T04:49:05.853Z,6.669
2024-03-25T04:50:06.261Z,6.686
2024-03-25T04:51:05.647Z,6.686
2024-03-25T04:52:06.042Z,6.666
2024-03-25T04:53:05.365Z,6.686
2024-03-25T04:54:05.773Z,6.686
2024-03-25T04:55:06.168Z,6.686
2024-03-25T04:56:05.572Z,6.686
2024-03-25T04:57:05.945Z,6.686
2024-03-25T04:58:06.179Z,6.686
2024-03-25T04:59:05.531Z,6.718
2024-03-25T05:00:07.046Z,6.718
2024-03-25T05:01:05.964Z,6.686
2024-03-25T05:02:05.546Z,6.686
2024-03-25T05:03:05.967Z,6.686
2024-03-25T05:04:06.344Z,6.635
2024-03-25T05:05:05.978Z,6.645
2024-03-25T05:06:05.328Z,6.686
2024-03-25T05:07:05.932Z,6.686
2024-03-25T05:08:06.279Z,6.686
2024-03-25T05:09:05.919Z,6.635
2024-03-25T05:10:07.560Z,6.614
2024-03-25T05:11:06.033Z,6.561
2024-03-25T05:12:05.475Z,6.561
2024-03-25T05:13:05.954Z,6.561
2024-03-25T05:14:06.347Z,6.531
2024-03-25T05:15:06.242Z,6.551
2024-03-25T05:16:05.650Z,6.604
2024-03-25T05:17:06.319Z,6.572
2024-03-25T05:18:05.848Z,6.561
2024-03-25T05:19:06.237Z,6.531
2024-03-25T05:20:05.775Z,6.5
2024-03-25T05:21:06.293Z,6.5
2024-03-25T05:22:05.640Z,6.468
2024-03-25T05:23:06.075Z,6.447
2024-03-25T05:24:05.592Z,6.436
2024-03-25T05:25:06.323Z,6.436
2024-03-25T05:26:05.953Z,6.426
2024-03-25T05:27:06.475Z,6.436
2024-03-25T05:28:05.865Z,6.395
2024-03-25T05:29:06.424Z,6.375
2024-03-25T05:30:10.893Z,6.375
2024-03-25T05:31:06.009Z,6.375
2024-03-25T05:32:05.485Z,6.364
2024-03-25T05:33:05.834Z,6.333
2024-03-25T05:34:06.300Z,6.311
2024-03-25T05:35:05.749Z,6.311
2024-03-25T05:36:06.083Z,6.311
2024-03-25T05:37:06.699Z,6.311
2024-03-25T05:38:06.314Z,6.291
2024-03-25T05:39:05.806Z,6.311
2024-03-25T05:40:06.438Z,6.25
2024-03-25T05:41:06.100Z,6.25
2024-03-25T05:42:05.584Z,6.25
2024-03-25T05:43:05.975Z,6.25
2024-03-25T05:44:05.429Z,6.25
2024-03-25T05:45:06.234Z,6.260
2024-03-25T05:46:05.734Z,6.301
2024-03-25T05:47:06.427Z,6.311
2024-03-25T05:48:06.955Z,6.311
2024-03-25T05:49:06.137Z,6.311
2024-03-25T05:50:05.652Z,6.311
2024-03-25T05:51:06.128Z,6.311
2024-03-25T05:52:05.722Z,6.311
2024-03-25T05:53:06.204Z,6.364
2024-03-25T05:54:05.566Z,6.375
2024-03-25T05:55:06.053Z,6.375
2024-03-25T05:56:05.503Z,6.375
2024-03-25T05:57:05.936Z,6.436
2024-03-25T05:58:06.476Z,6.436
2024-03-25T05:59:05.927Z,6.436
2024-03-25T06:00:07.320Z,6.489
2024-03-25T06:01:06.101Z,6.489
2024-03-25T06:02:05.775Z,6.436
2024-03-25T06:03:06.364Z,6.479
2024-03-25T06:04:05.782Z,6.5
2024-03-25T06:05:06.389Z,6.447
2024-03-25T06:06:05.892Z,6.436
2024-03-25T06:07:06.507Z,6.436
2024-03-25T06:08:06.137Z,6.436
2024-03-25T06:09:05.748Z,6.436
2024-03-25T06:10:06.377Z,6.436
2024-03-25T06:11:06.056Z,6.436
2024-03-25T06:12:05.772Z,6.436
2024-03-25T06:13:06.427Z,6.464
2024-03-25T06:14:05.780Z,6.524
2024-03-25T06:15:06.675Z,6.551
2024-03-25T06:16:05.994Z,6.561
2024-03-25T06:17:05.488Z,6.561
2024-03-25T06:18:05.886Z,6.512
2024-03-25T06:19:06.191Z,6.526
2024-03-25T06:20:05.494Z,6.561
2024-03-25T06:21:06.059Z,6.561
2024-03-25T06:22:05.400Z,6.561
2024-03-25T06:23:05.836Z,6.561
2024-03-25T06:24:06.280Z,6.574
2024-03-25T06:25:05.896Z,6.589
2024-03-25T06:26:06.477Z,6.612
2024-03-25T06:27:06.149Z,6.625
2024-03-25T06:28:05.517Z,6.674
2024-03-25T06:29:06.048Z,6.686
2024-03-25T06:30:05.973Z,6.686
2024-03-25T06:31:06.450Z,6.686
2024-03-25T06:32:06.356Z,6.75
2024-03-25T06:33:05.747Z,6.75
2024-03-25T06:34:06.219Z,6.75
2024-03-25T06:35:05.755Z,6.75
2024-03-25T06:36:06.152Z,6.762
2024-03-25T06:37:05.855Z,6.811
2024-03-25T06:38:06.329Z,6.811
2024-03-25T06:39:05.839Z,6.811
2024-03-25T06:40:06.279Z,6.864
2024-03-25T06:41:05.698Z,6.875
2024-03-25T06:42:06.159Z,6.875
2024-03-25T06:43:05.492Z,6.875
2024-03-25T06:44:05.987Z,6.906
2024-03-25T06:45:05.718Z,6.936
2024-03-25T06:46:06.039Z,6.936
2024-03-25T06:47:05.635Z,6.936
2024-03-25T06:48:06.130Z,6.968
2024-03-25T06:49:05.446Z,7
2024-03-25T06:50:06.076Z,7
2024-03-25T06:51:05.425Z,7
2024-03-25T06:52:05.932Z,7
2024-03-25T06:53:06.368Z,7.041
2024-03-25T06:54:05.840Z,7.061
2024-03-25T06:55:06.340Z,7.061
2024-03-25T06:56:05.878Z,7.061
2024-03-25T06:57:06.239Z,7.061
2024-03-25T06:58:05.693Z,7.104
2024-03-25T06:59:06.108Z,7.125
2024-03-25T07:00:07.085Z,7.125
2024-03-25T07:01:06.156Z,7.135
2024-03-25T07:02:05.853Z,7.176
2024-03-25T07:03:06.261Z,7.186
2024-03-25T07:04:05.823Z,7.186
2024-03-25T07:05:06.376Z,7.186
2024-03-25T07:06:05.859Z,7.186
2024-03-25T07:07:06.165Z,7.186
2024-03-25T07:08:05.565Z,7.186
2024-03-25T07:09:05.925Z,7.218
2024-03-25T07:10:06.396Z,7.239
2024-03-25T07:11:06.309Z,7.25
2024-03-25T07:12:05.929Z,7.25
2024-03-25T07:13:06.315Z,7.281
2024-03-25T07:14:05.720Z,7.311
2024-03-25T07:15:06.372Z,7.311
2024-03-25T07:16:05.846Z,7.322
2024-03-25T07:17:06.423Z,7.333
2024-03-25T07:18:05.743Z,7.364
2024-03-25T07:19:06.041Z,7.375
2024-03-25T07:20:05.637Z,7.375
2024-03-25T07:21:05.952Z,7.375
2024-03-25T07:22:06.350Z,7.375
2024-03-25T07:23:05.748Z,7.375
2024-03-25T07:24:06.277Z,7.395
2024-03-25T07:25:05.680Z,7.436
2024-03-25T07:26:06.146Z,7.436
2024-03-25T07:27:05.871Z,7.436
2024-03-25T07:28:06.301Z,7.436
2024-03-25T07:29:05.878Z,7.436
2024-03-25T07:30:06.658Z,7.436
2024-03-25T07:31:06.185Z,7.458
2024-03-25T07:32:05.816Z,7.5
2024-03-25T07:33:06.356Z,7.5
2024-03-25T07:34:05.853Z,7.5
2024-03-25T07:35:06.492Z,7.5
2024-03-25T07:36:06.174Z,7.5
2024-03-25T07:37:05.706Z,7.5
2024-03-25T07:38:06.487Z,7.510
2024-03-25T07:39:06.036Z,7.561
2024-03-25T07:40:05.496Z,7.561
2024-03-25T07:41:06.002Z,7.561
2024-03-25T07:42:05.566Z,7.561
2024-03-25T07:43:06.209Z,7.561
2024-03-25T07:44:05.684Z,7.561
2024-03-25T07:45:06.580Z,7.561
2024-03-25T07:46:06.142Z,7.561
2024-03-25T07:47:05.779Z,7.561
2024-03-25T07:48:06.239Z,7.574
2024-03-25T07:49:05.774Z,7.579
2024-03-25T07:50:06.485Z,7.625
2024-03-25T07:51:05.977Z,7.625
2024-03-25T07:52:05.487Z,7.625
2024-03-25T07:53:06.093Z,7.625
2024-03-25T07:54:05.778Z,7.625
2024-03-25T07:55:06.263Z,7.625
2024-03-25T07:56:05.953Z,7.649
2024-03-25T07:57:05.515Z,7.656
2024-03-25T07:58:06.126Z,7.656
2024-03-25T07:59:05.584Z,7.686
2024-03-25T08:00:07.030Z,7.686
2024-03-25T08:01:06.178Z,7.686
2024-03-25T08:02:05.971Z,7.686
2024-03-25T08:03:05.735Z,7.686
2024-03-25T08:04:06.370Z,7.686
2024-03-25T08:05:06.126Z,7.686
2024-03-25T08:06:06.144Z,7.686
2024-03-25T08:07:05.849Z,7.686
2024-03-25T08:08:06.380Z,7.739
2024-03-25T08:09:05.952Z,7.75
2024-03-25T08:10:06.564Z,7.75
2024-03-25T08:11:06.272Z,7.75
2024-03-25T08:12:05.796Z,7.75
2024-03-25T08:13:06.298Z,7.75
2024-03-25T08:14:06.012Z,7.75
2024-03-25T08:15:05.827Z,7.75
2024-03-25T08:16:06.543Z,7.75
2024-03-25T08:17:06.218Z,7.75
2024-03-25T08:18:05.959Z,7.770
2024-03-25T08:19:05.444Z,7.770
2024-03-25T08:20:06.120Z,7.791
2024-03-25T08:21:05.783Z,7.801
2024-03-25T08:22:06.237Z,7.811
2024-03-25T08:23:05.862Z,7.811
2024-03-25T08:24:06.263Z,7.811
2024-03-25T08:25:05.768Z,7.811
2024-03-25T08:26:06.061Z,7.811
2024-03-25T08:27:05.375Z,7.811
2024-03-25T08:28:05.803Z,7.811
2024-03-25T08:29:06.211Z,7.811
2024-03-25T08:30:06.290Z,7.811
2024-03-25T08:31:05.722Z,7.811
2024-03-25T08:32:06.380Z,7.811
2024-03-25T08:33:05.956Z,7.811
2024-03-25T08:34:05.572Z,7.811
2024-03-25T08:35:06.378Z,7.811
2024-03-25T08:36:06.172Z,7.822
2024-03-25T08:37:05.989Z,7.875
2024-03-25T08:38:05.668Z,7.875
2024-03-25T08:39:06.414Z,7.875
2024-03-25T08:40:06.034Z,7.875
2024-03-25T08:41:05.456Z,7.875
2024-03-25T08:42:06.334Z,7.875
2024-03-25T08:43:06.014Z,7.875
2024-03-25T08:44:05.623Z,7.875
2024-03-25T08:45:06.555Z,7.875
2024-03-25T08:46:06.220Z,7.875
2024-03-25T08:47:05.953Z,7.875
2024-03-25T08:48:06.647Z,7.885
2024-03-25T08:49:06.104Z,7.895
2024-03-25T08:50:05.712Z,7.906
2024-03-25T08:51:06.173Z,7.906
2024-03-25T08:52:05.768Z,7.916
2024-03-25T08:53:06.154Z,7.936
2024-03-25T08:54:05.679Z,7.936
2024-03-25T08:55:06.282Z,7.936
2024-03-25T08:56:05.987Z,7.936
2024-03-25T08:57:05.641Z,7.936
2024-03-25T08:58:06.302Z,7.936
2024-03-25T08:59:05.767Z,7.936
2024-03-25T09:00:07.355Z,7.968
2024-03-25T09:01:05.751Z,7.968
2024-03-25T09:02:07.487Z,8
2024-03-25T09:03:06.011Z,7.989
2024-03-25T09:04:13.652Z,8
2024-03-25T09:05:06.503Z,8
2024-03-25T09:06:06.310Z,8
2024-03-25T09:07:05.919Z,8
2024-03-25T09:08:06.504Z,8
2024-03-25T09:09:06.251Z,8
2024-03-25T09:10:05.851Z,8
2024-03-25T09:11:06.198Z,8
2024-03-25T09:12:05.718Z,8
2024-03-25T09:13:06.462Z,8
2024-03-25T09:14:06.129Z,8.020
2024-03-25T09:15:06.099Z,8.051
2024-03-25T09:16:05.562Z,8.062
2024-03-25T09:17:06.406Z,8.062
2024-03-25T09:18:05.887Z,8.062
2024-03-25T09:19:06.294Z,8.062
2024-03-25T09:20:05.831Z,8.062
2024-03-25T09:21:06.233Z,8.062
2024-03-25T09:22:05.595Z,8.062
2024-03-25T09:23:06.371Z,8.062
2024-03-25T09:24:05.809Z,8.062
2024-03-25T09:25:06.297Z,8.072
2024-03-25T09:26:05.731Z,8.072
2024-03-25T09:27:06.346Z,8.104
2024-03-25T09:28:06.017Z,8.083
2024-03-25T09:29:05.414Z,8.116
2024-03-25T09:30:06.335Z,8.099
2024-03-25T09:31:05.928Z,8.114
2024-03-25T09:32:06.488Z,8.125
2024-03-25T09:33:05.951Z,8.125
2024-03-25T09:34:05.515Z,8.125
2024-03-25T09:35:05.956Z,8.125
2024-03-25T09:36:06.761Z,8.125
2024-03-25T09:37:06.224Z,8.125
2024-03-25T09:38:05.784Z,8.125
2024-03-25T09:39:06.312Z,8.125
2024-03-25T09:40:05.867Z,8.125
2024-03-25T09:41:06.323Z,8.125
2024-03-25T09:42:05.934Z,8.125
2024-03-25T09:43:06.426Z,8.125
2024-03-25T09:44:06.054Z,8.125
2024-03-25T09:45:06.037Z,8.125
2024-03-25T09:46:05.373Z,8.125
2024-03-25T09:47:06.040Z,8.166
2024-03-25T09:48:05.497Z,8.176
2024-03-25T09:49:05.979Z,8.187
2024-03-25T09:50:05.630Z,8.176
2024-03-25T09:51:06.285Z,8.156
2024-03-25T09:52:06.032Z,8.156
2024-03-25T09:53:05.563Z,8.176
2024-03-25T09:54:06.098Z,8.187
2024-03-25T09:55:05.649Z,8.187
2024-03-25T09:56:06.237Z,8.166
2024-03-25T09:57:05.759Z,8.187
2024-03-25T09:58:06.371Z,8.187
2024-03-25T09:59:05.986Z,8.187
2024-03-25T10:00:06.366Z,8.187
2024-03-25T10:01:06.199Z,8.187
2024-03-25T10:02:05.822Z,8.187
2024-03-25T10:03:06.087Z,8.187
2024-03-25T10:04:05.535Z,8.187
2024-03-25T10:05:06.016Z,8.187
2024-03-25T10:06:05.459Z,8.187
2024-03-25T10:07:05.962Z,8.187
2024-03-25T10:08:06.396Z,8.187
2024-03-25T10:09:05.864Z,8.187
2024-03-25T10:10:06.347Z,8.187
2024-03-25T10:11:05.923Z,8.187
2024-03-25T10:12:06.321Z,8.187
2024-03-25T10:13:05.908Z,8.197
2024-03-25T10:14:06.220Z,8.187
2024-03-25T10:15:06.017Z,8.187
2024-03-25T10:16:05.631Z,8.187
2024-03-25T10:17:06.287Z,8.197
2024-03-25T10:18:05.879Z,8.208
2024-03-25T10:19:06.199Z,8.218
2024-03-25T10:20:05.885Z,8.229
2024-03-25T10:21:06.206Z,8.25
2024-03-25T10:22:05.718Z,8.25
2024-03-25T10:23:06.303Z,8.239
2024-03-25T10:24:05.811Z,8.25
2024-03-25T10:25:06.186Z,8.25
2024-03-25T10:26:05.835Z,8.25
2024-03-25T10:27:06.679Z,8.25
2024-03-25T10:28:06.092Z,8.25
2024-03-25T10:29:05.528Z,8.25
2024-03-25T10:30:06.366Z,8.25
2024-03-25T10:31:05.895Z,8.25
2024-03-25T10:32:06.606Z,8.25
2024-03-25T10:33:06.226Z,8.25
2024-03-25T10:34:05.644Z,8.25
2024-03-25T10:35:06.284Z,8.25
2024-03-25T10:36:05.908Z,8.25
2024-03-25T10:37:06.367Z,8.25
2024-03-25T10:38:05.836Z,8.25
2024-03-25T10:39:06.363Z,8.25
2024-03-25T10:40:06.080Z,8.25
2024-03-25T10:41:06.771Z,8.25
2024-03-25T10:42:06.158Z,8.25
2024-03-25T10:43:05.703Z,8.25
2024-03-25T10:44:06.143Z,8.25
2024-03-25T10:45:05.958Z,8.25
2024-03-25T10:46:06.360Z,8.25
2024-03-25T10:47:06.025Z,8.25
2024-03-25T10:48:05.502Z,8.25
2024-03-25T10:49:06.016Z,8.25
2024-03-25T10:50:05.684Z,8.260
2024-03-25T10:51:06.321Z,8.270
2024-03-25T10:52:05.760Z,8.301
2024-03-25T10:53:06.233Z,8.281
2024-03-25T10:54:05.757Z,8.281
2024-03-25T10:55:06.141Z,8.25
2024-03-25T10:56:05.709Z,8.25
2024-03-25T10:57:06.468Z,8.260
2024-03-25T10:58:06.025Z,8.301
2024-03-25T10:59:05.729Z,8.301
2024-03-25T11:00:07.589Z,8.312
2024-03-25T11:01:05.771Z,8.312
2024-03-25T11:02:05.630Z,8.312
2024-03-25T11:03:06.261Z,8.301
2024-03-25T11:04:05.636Z,8.312
2024-03-25T11:05:06.112Z,8.312
2024-03-25T11:06:05.687Z,8.291
2024-03-25T11:07:06.070Z,8.260
2024-03-25T11:08:05.802Z,8.25
2024-03-25T11:09:06.282Z,8.25
2024-03-25T11:10:06.098Z,8.270
2024-03-25T11:11:05.791Z,8.260
2024-03-25T11:12:06.212Z,8.270
2024-03-25T11:13:05.698Z,8.260
2024-03-25T11:14:06.162Z,8.312
2024-03-25T11:15:06.048Z,8.312
2024-03-25T11:16:05.847Z,8.281
2024-03-25T11:17:06.401Z,8.312
2024-03-25T11:18:05.831Z,8.301
2024-03-25T11:19:06.098Z,8.281
2024-03-25T11:20:05.766Z,8.291
2024-03-25T11:21:06.166Z,8.301
2024-03-25T11:22:05.654Z,8.301
2024-03-25T11:23:06.039Z,8.301
2024-03-25T11:24:05.607Z,8.312
2024-03-25T11:25:06.154Z,8.312
2024-03-25T11:26:05.580Z,8.312
2024-03-25T11:27:06.063Z,8.312
2024-03-25T11:28:05.573Z,8.312
2024-03-25T11:29:06.084Z,8.312
2024-03-25T11:30:06.101Z,8.312
2024-03-25T11:31:05.609Z,8.312
2024-03-25T11:32:06.193Z,8.312
2024-03-25T11:33:05.662Z,8.312
2024-03-25T11:34:06.066Z,8.312
2024-03-25T11:35:05.593Z,8.338
2024-03-25T11:36:06.121Z,8.375
2024-03-25T11:37:05.740Z,8.366
2024-03-25T11:38:06.138Z,8.312
2024-03-25T11:39:05.632Z,8.366
2024-03-25T11:40:06.546Z,8.362
2024-03-25T11:41:05.926Z,8.366
2024-03-25T11:42:06.524Z,8.375
2024-03-25T11:43:06.036Z,8.375
2024-03-25T11:44:05.747Z,8.375
2024-03-25T11:45:06.551Z,8.375
2024-03-25T11:46:05.880Z,8.375
2024-03-25T11:47:08.757Z,8.375
2024-03-25T11:48:06.368Z,8.375
2024-03-25T11:49:05.857Z,8.375
2024-03-25T11:50:06.289Z,8.375
2024-03-25T11:51:05.696Z,8.375
2024-03-25T11:52:06.126Z,8.375
2024-03-25T11:53:05.615Z,8.406
2024-03-25T11:54:06.168Z,8.416
2024-03-25T11:55:05.771Z,8.375
2024-03-25T11:56:06.200Z,8.375
2024-03-25T11:57:05.789Z,8.375
2024-03-25T11:58:06.251Z,8.375
2024-03-25T11:59:05.705Z,8.385
2024-03-25T12:00:07.483Z,8.416
2024-03-25T12:01:05.971Z,8.385
2024-03-25T12:02:05.851Z,8.406
2024-03-25T12:03:06.442Z,8.416
2024-03-25T12:04:05.868Z,8.416
2024-03-25T12:05:06.463Z,8.437
2024-03-25T12:06:05.875Z,8.437
2024-03-25T12:07:06.254Z,8.437
2024-03-25T12:08:05.711Z,8.437
2024-03-25T12:09:06.426Z,8.437
2024-03-25T12:10:06.070Z,8.437
2024-03-25T12:11:05.573Z,8.437
2024-03-25T12:12:06.253Z,8.437
2024-03-25T12:13:05.823Z,8.437
2024-03-25T12:14:06.488Z,8.437
2024-03-25T12:15:06.288Z,8.437
2024-03-25T12:16:05.721Z,8.437
2024-03-25T12:17:06.334Z,8.437
2024-03-25T12:18:05.749Z,8.437
2024-03-25T12:19:06.195Z,8.437
2024-03-25T12:20:05.736Z,8.437
2024-03-25T12:21:06.423Z,8.437
2024-03-25T12:22:05.894Z,8.437
2024-03-25T12:23:06.299Z,8.437
2024-03-25T12:24:05.808Z,8.437
2024-03-25T12:25:06.412Z,8.437
2024-03-25T12:26:05.907Z,8.437
2024-03-25T12:27:06.335Z,8.437
2024-03-25T12:28:05.851Z,8.447
2024-03-25T12:29:06.399Z,8.5
2024-03-25T12:30:06.489Z,8.489
2024-03-25T12:31:05.967Z,8.479
2024-03-25T12:32:06.680Z,8.5
2024-03-25T12:33:06.156Z,8.5
2024-03-25T12:34:05.705Z,8.489
2024-03-25T12:35:06.247Z,8.5
2024-03-25T12:36:05.982Z,8.489
2024-03-25T12:37:05.406Z,8.468
2024-03-25T12:38:07.281Z,8.489
2024-03-25T12:39:06.117Z,8.5
2024-03-25T12:40:05.761Z,8.5
2024-03-25T12:41:06.144Z,8.5
2024-03-25T12:42:05.777Z,8.5
2024-03-25T12:43:06.181Z,8.5
2024-03-25T12:44:05.777Z,8.5
2024-03-25T12:45:06.531Z,7
2024-03-25T12:46:06.030Z,8.5
2024-03-25T12:47:07.468Z,8.5
2024-03-25T12:48:06.008Z,8.5
2024-03-25T12:49:05.476Z,8.5
2024-03-25T12:50:05.980Z,8.5
2024-03-25T12:51:05.303Z,8.5
2024-03-25T12:52:05.720Z,8.5
2024-03-25T12:53:06.204Z,8.5
2024-03-25T12:54:05.879Z,8.5
2024-03-25T12:55:06.383Z,8.5
2024-03-25T12:56:05.881Z,8.5
2024-03-25T12:57:06.904Z,8.520
2024-03-25T12:58:05.847Z,8.551
2024-03-25T12:59:06.349Z,8.517
2024-03-25T13:00:07.126Z,8.5
2024-03-25T13:01:05.949Z,8.562
2024-03-25T13:02:06.679Z,8.541
2024-03-25T13:03:06.143Z,8.553